createdAt,value
2023-04-01T00:01:15.934Z,54.81
2023-04-01T00:03:45.703Z,55.49
2023-04-01T00:06:16.437Z,55.54
2023-04-01T00:08:45.795Z,55.06
2023-04-01T00:11:15.772Z,54.11
2023-04-01T00:13:44.476Z,54.68
2023-04-01T00:16:21.728Z,53.38
2023-04-01T00:18:51.736Z,53.44
2023-04-01T00:21:21.626Z,56.46
2023-04-01T00:23:51.653Z,55.17
2023-04-01T00:26:22.089Z,53.56
2023-04-01T00:28:51.262Z,55.84
2023-04-01T00:31:20.478Z,54.48
2023-04-01T00:33:49.183Z,53.82
2023-04-01T00:36:20.333Z,54.68
2023-04-01T00:38:48.916Z,55.11
2023-04-01T00:41:18.808Z,56.15
2023-04-01T00:43:49.830Z,53.93
2023-04-01T00:46:18.677Z,53.27
2023-04-01T00:48:54.742Z,54.87
2023-04-01T00:51:27.801Z,53.93
2023-04-01T00:53:59.223Z,54.00
2023-04-01T00:56:37.851Z,54.34
2023-04-01T00:59:12.828Z,56.62
2023-04-01T01:01:41.383Z,53.81
2023-04-01T01:04:32.530Z,53.93
2023-04-01T01:07:25.888Z,52.66
2023-04-01T01:10:13.076Z,54.84
2023-04-01T01:13:02.956Z,53.42
2023-04-01T01:15:37.457Z,53.77
2023-04-01T01:18:46.933Z,54.02
2023-04-01T01:21:30.930Z,53.26
2023-04-01T01:24:21.078Z,53.40
2023-04-01T01:27:04.633Z,52.99
2023-04-01T01:30:00.559Z,53.69
2023-04-01T01:32:41.318Z,54.28
2023-04-01T01:35:37.725Z,53.73
2023-04-01T01:38:18.698Z,54.21
2023-04-01T01:40:52.776Z,52.82
2023-04-01T01:43:25.329Z,52.55
2023-04-01T01:45:57.227Z,54.07
2023-04-01T01:48:28.759Z,54.49
2023-04-01T01:50:57.910Z,56.78
2023-04-01T01:53:26.496Z,55.42
2023-04-01T01:55:55.193Z,56.15
2023-04-01T01:58:27.990Z,54.34
2023-04-01T02:01:00.747Z,53.71
2023-04-01T02:03:33.877Z,53.97
2023-04-01T02:06:07.265Z,54.19
2023-04-01T02:08:59.051Z,53.48
2023-04-01T02:11:43.723Z,54.03
2023-04-01T02:14:17.353Z,53.00
2023-04-01T02:16:58.106Z,56.60
2023-04-01T02:19:34.720Z,55.30
2023-04-01T02:22:06.326Z,57.43
2023-04-01T02:24:36.712Z,55.13
2023-04-01T02:27:05.555Z,54.15
2023-04-01T02:29:34.122Z,53.83
2023-04-01T02:32:03.658Z,54.47
2023-04-01T02:34:32.268Z,55.76
2023-04-01T02:37:01.268Z,54.28
2023-04-01T02:39:29.735Z,53.98
2023-04-01T02:41:58.164Z,54.27
2023-04-01T02:44:26.681Z,57.20
2023-04-01T02:46:55.261Z,55.09
2023-04-01T02:49:23.830Z,55.58
2023-04-01T02:51:52.849Z,56.01
2023-04-01T02:54:21.603Z,55.10
2023-04-01T02:56:50.064Z,56.12
2023-04-01T02:59:18.538Z,55.95
2023-04-01T03:01:46.994Z,54.33
2023-04-01T03:04:15.488Z,54.30
2023-04-01T03:06:44.108Z,55.59
2023-04-01T03:09:12.531Z,54.29
2023-04-01T03:11:41.783Z,53.07
2023-04-01T03:14:10.501Z,54.07
2023-04-01T03:16:38.927Z,53.44
2023-04-01T03:19:07.374Z,55.24
2023-04-01T03:21:35.875Z,54.05
2023-04-01T03:24:04.822Z,55.96
2023-04-01T03:26:33.431Z,55.40
2023-04-01T03:29:01.818Z,55.34
2023-04-01T03:31:30.366Z,55.14
2023-04-01T03:33:58.888Z,55.30
2023-04-01T03:36:27.400Z,55.77
2023-04-01T03:38:55.956Z,54.99
2023-04-01T03:41:24.379Z,56.14
2023-04-01T03:43:54.313Z,56.19
2023-04-01T03:46:23.055Z,56.41
2023-04-01T03:48:51.510Z,56.73
2023-04-01T03:51:19.949Z,54.32
2023-04-01T03:53:48.404Z,55.12
2023-04-01T03:56:16.878Z,56.84
2023-04-01T03:58:45.384Z,58.22
2023-04-01T04:01:23.559Z,56.36
2023-04-01T04:03:52.153Z,55.97
2023-04-01T04:06:21.069Z,55.78
2023-04-01T04:08:50.439Z,55.61
2023-04-01T04:11:20.131Z,56.07
2023-04-01T04:13:48.929Z,60.07
2023-04-01T04:16:18.279Z,57.01
2023-04-01T04:18:46.669Z,57.01
2023-04-01T04:21:16.304Z,58.22
2023-04-01T04:23:44.998Z,55.80
2023-04-01T04:26:16.045Z,57.82
2023-04-01T04:28:44.564Z,57.03
2023-04-01T04:31:18.800Z,57.94
2023-04-01T04:33:47.338Z,58.71
2023-04-01T04:36:16.077Z,58.36
2023-04-01T04:38:44.676Z,57.37
2023-04-01T04:41:18.758Z,59.33
2023-04-01T04:43:55.794Z,60.09
2023-04-01T04:46:24.751Z,58.15
2023-04-01T04:48:53.173Z,61.77
2023-04-01T04:51:22.489Z,58.86
2023-04-01T04:53:52.301Z,59.56
2023-04-01T04:56:22.471Z,57.94
2023-04-01T04:58:50.984Z,57.30
2023-04-01T05:01:20.374Z,59.54
2023-04-01T05:03:49.002Z,58.09
2023-04-01T05:06:18.010Z,59.56
2023-04-01T05:08:46.912Z,57.63
2023-04-01T05:11:19.488Z,59.86
2023-04-01T05:13:48.160Z,60.22
2023-04-01T05:16:19.471Z,62.70
2023-04-01T05:18:48.634Z,59.61
2023-04-01T05:21:17.175Z,61.45
2023-04-01T05:23:45.866Z,61.82
2023-04-01T05:26:15.572Z,60.36
2023-04-01T05:28:44.066Z,59.06
2023-04-01T05:31:12.474Z,59.56
2023-04-01T05:33:40.993Z,60.31
2023-04-01T05:36:13.157Z,62.60
2023-04-01T05:38:41.640Z,59.91
2023-04-01T05:41:10.351Z,57.22
2023-04-01T05:43:39.898Z,58.40
2023-04-01T05:46:08.463Z,60.79
2023-04-01T05:48:36.950Z,61.22
2023-04-01T05:51:06.058Z,59.68
2023-04-01T05:53:34.535Z,60.68
2023-04-01T05:56:04.912Z,58.55
2023-04-01T05:58:33.466Z,60.74
2023-04-01T06:01:16.299Z,61.96
2023-04-01T06:03:45.663Z,61.39
2023-04-01T06:06:17.048Z,61.97
2023-04-01T06:08:45.907Z,59.76
2023-04-01T06:11:26.449Z,57.59
2023-04-01T06:14:06.519Z,57.63
2023-04-01T06:16:59.722Z,59.34
2023-04-01T06:19:44.286Z,60.84
2023-04-01T06:22:25.839Z,61.18
2023-04-01T06:25:06.793Z,60.99
2023-04-01T06:28:08.885Z,61.38
2023-04-01T06:30:45.944Z,62.79
2023-04-01T06:33:41.182Z,61.56
2023-04-01T06:36:40.174Z,60.23
2023-04-01T06:39:20.229Z,60.87
2023-04-01T06:42:00.598Z,60.29
2023-04-01T06:45:09.565Z,61.39
2023-04-01T06:47:53.937Z,64.55
2023-04-01T06:50:28.259Z,60.93
2023-04-01T06:53:08.751Z,60.04
2023-04-01T06:55:48.299Z,59.31
2023-04-01T06:58:27.276Z,61.62
2023-04-01T07:01:00.646Z,59.05
2023-04-01T07:03:42.544Z,60.07
2023-04-01T07:06:26.806Z,59.74
2023-04-01T07:08:58.356Z,60.00
2023-04-01T07:11:32.879Z,59.07
2023-04-01T07:14:20.062Z,58.32
2023-04-01T07:17:12.984Z,58.10
2023-04-01T07:20:01.874Z,59.46
2023-04-01T07:22:36.768Z,60.54
2023-04-01T07:25:15.831Z,59.66
2023-04-01T07:27:46.322Z,59.62
2023-04-01T07:30:20.834Z,59.97
2023-04-01T07:33:02.925Z,58.57
2023-04-01T07:35:42.865Z,58.15
2023-04-01T07:38:16.417Z,57.96
2023-04-01T07:40:53.956Z,56.28
2023-04-01T07:43:37.574Z,55.79
2023-04-01T07:46:15.788Z,53.93
2023-04-01T07:48:59.148Z,55.52
2023-04-01T07:52:00.685Z,57.13
2023-04-01T07:54:56.250Z,55.62
2023-04-01T07:57:57.026Z,57.90
2023-04-01T08:00:32.480Z,56.18
2023-04-01T08:03:20.953Z,56.96
2023-04-01T08:06:03.942Z,55.60
2023-04-01T08:09:06.353Z,54.02
2023-04-01T08:11:53.046Z,54.30
2023-04-01T08:14:42.488Z,54.88
2023-04-01T08:17:37.391Z,58.40
2023-04-01T08:20:24.093Z,56.12
2023-04-01T08:23:31.382Z,55.24
2023-04-01T08:26:12.352Z,56.23
2023-04-01T08:29:00.416Z,56.98
2023-04-01T08:31:59.231Z,57.53
2023-04-01T08:34:52.130Z,56.02
2023-04-01T08:37:26.874Z,55.81
2023-04-01T08:40:05.546Z,56.17
2023-04-01T08:42:58.915Z,56.70
2023-04-01T08:45:33.691Z,54.86
2023-04-01T08:48:28.857Z,56.49
2023-04-01T08:51:06.766Z,56.50
2023-04-01T08:53:51.698Z,55.78
2023-04-01T08:56:48.560Z,54.70
2023-04-01T08:59:35.740Z,55.08
2023-04-01T09:02:32.437Z,55.56
2023-04-01T09:05:25.802Z,56.51
2023-04-01T09:08:15.326Z,57.25
2023-04-01T09:11:08.694Z,57.13
2023-04-01T09:13:43.105Z,55.71
2023-04-01T09:16:41.207Z,55.94
2023-04-01T09:19:24.932Z,55.35
2023-04-01T09:22:17.568Z,53.55
2023-04-01T09:25:17.417Z,53.63
2023-04-01T09:28:09.423Z,53.44
2023-04-01T09:30:49.765Z,55.17
2023-04-01T09:33:43.821Z,56.87
2023-04-01T09:36:18.147Z,57.18
2023-04-01T09:38:57.942Z,57.97
2023-04-01T09:41:43.664Z,56.34
2023-04-01T09:44:34.932Z,55.50
2023-04-01T09:47:25.417Z,54.66
2023-04-01T09:50:00.672Z,56.27
2023-04-01T09:53:05.544Z,58.10
2023-04-01T09:56:08.023Z,56.59
2023-04-01T09:59:02.807Z,57.35
2023-04-01T10:01:43.454Z,58.68
2023-04-01T10:04:23.709Z,58.38
2023-04-01T10:07:30.425Z,58.14
2023-04-01T10:10:27.227Z,56.55
2023-04-01T10:13:27.440Z,58.35
2023-04-01T10:16:20.861Z,56.24
2023-04-01T10:19:26.921Z,55.29
2023-04-01T10:22:26.228Z,56.41
2023-04-01T10:25:09.875Z,55.53
2023-04-01T10:28:08.703Z,54.55
2023-04-01T10:31:11.077Z,53.56
2023-04-01T10:34:10.253Z,52.79
2023-04-01T10:36:48.890Z,55.24
2023-04-01T10:39:45.070Z,55.51
2023-04-01T10:43:01.416Z,53.80
2023-04-01T10:45:45.028Z,55.43
2023-04-01T10:48:40.745Z,56.07
2023-04-01T10:51:21.325Z,55.98
2023-04-01T10:54:20.488Z,56.24
2023-04-01T10:57:14.024Z,54.58
2023-04-01T10:59:48.686Z,57.30
2023-04-01T11:02:36.259Z,55.40
2023-04-01T11:05:52.647Z,56.64
2023-04-01T11:08:39.452Z,54.02
2023-04-01T11:11:18.481Z,54.96
2023-04-01T11:14:24.376Z,54.03
2023-04-01T11:17:04.980Z,53.84
2023-04-01T11:20:00.581Z,54.92
2023-04-01T11:22:42.125Z,57.02
2023-04-01T11:25:31.435Z,53.77
2023-04-01T11:28:18.704Z,54.36
2023-04-01T11:31:12.764Z,55.63
2023-04-01T11:33:53.077Z,54.06
2023-04-01T11:36:33.264Z,55.43
2023-04-01T11:39:14.670Z,54.81
2023-04-01T11:41:51.630Z,55.28
2023-04-01T11:44:31.303Z,55.87
2023-04-01T11:47:29.005Z,56.13
2023-04-01T11:50:24.443Z,57.68
2023-04-01T11:53:18.537Z,55.84
2023-04-01T11:56:14.337Z,57.18
2023-04-01T11:59:01.825Z,56.74
2023-04-01T12:01:42.420Z,56.50
2023-04-01T12:04:49.451Z,56.05
2023-04-01T12:07:31.235Z,55.47
2023-04-01T12:10:18.351Z,53.62
2023-04-01T12:13:01.157Z,56.01
2023-04-01T12:15:42.496Z,57.63
2023-04-01T12:18:27.594Z,54.92
2023-04-01T12:21:06.989Z,54.44
2023-04-01T12:23:57.134Z,54.36
2023-04-01T12:26:36.539Z,56.57
2023-04-01T12:29:31.302Z,56.21
2023-04-01T12:32:26.166Z,53.83
2023-04-01T12:35:25.823Z,54.04
2023-04-01T12:38:26.671Z,54.56
2023-04-01T12:41:15.505Z,53.38
2023-04-01T12:44:21.924Z,54.32
2023-04-01T12:47:32.565Z,56.15
2023-04-01T12:50:33.319Z,55.66
2023-04-01T12:53:36.416Z,54.11
2023-04-01T12:56:17.771Z,53.58
2023-04-01T12:59:01.560Z,53.12
2023-04-01T13:01:45.724Z,54.47
2023-04-01T13:04:47.466Z,54.08
2023-04-01T13:07:43.644Z,55.30
2023-04-01T13:10:31.065Z,54.69
2023-04-01T13:13:24.439Z,55.68
2023-04-01T13:16:02.558Z,55.19
2023-04-01T13:18:56.673Z,53.98
2023-04-01T13:21:50.090Z,53.52
2023-04-01T13:24:53.121Z,53.87
2023-04-01T13:27:30.677Z,55.15
2023-04-01T13:30:20.915Z,53.43
2023-04-01T13:33:02.786Z,55.58
2023-04-01T13:35:42.798Z,56.97
2023-04-01T13:38:32.631Z,56.62
2023-04-01T13:41:14.077Z,55.40
2023-04-01T13:44:24.188Z,55.86
2023-04-01T13:47:07.593Z,55.72
2023-04-01T13:49:46.362Z,54.59
2023-04-01T13:52:27.622Z,54.23
2023-04-01T13:55:00.942Z,55.83
2023-04-01T13:57:55.751Z,55.86
2023-04-01T14:00:29.644Z,56.51
2023-04-01T14:03:20.631Z,53.99
2023-04-01T14:06:19.785Z,55.31
2023-04-01T14:09:29.846Z,56.00
2023-04-01T14:12:11.450Z,56.12
2023-04-01T14:15:22.460Z,56.54
2023-04-01T14:18:12.986Z,54.34
2023-04-01T14:21:00.360Z,54.31
2023-04-01T14:23:44.866Z,55.50
2023-04-01T14:26:27.749Z,55.62
2023-04-01T14:29:20.993Z,57.97
2023-04-01T14:31:58.293Z,55.87
2023-04-01T14:34:51.847Z,55.49
2023-04-01T14:37:56.815Z,54.68
2023-04-01T14:40:47.103Z,56.43
2023-04-01T14:43:34.262Z,55.44
2023-04-01T14:46:14.169Z,55.03
2023-04-01T14:49:05.690Z,56.25
2023-04-01T14:51:38.689Z,55.71
2023-04-01T14:54:23.814Z,57.46
2023-04-01T14:57:25.736Z,56.24
2023-04-01T15:00:14.442Z,55.97
2023-04-01T15:03:02.442Z,55.97
2023-04-01T15:05:43.335Z,53.66
2023-04-01T15:08:21.205Z,53.68
2023-04-01T15:10:55.639Z,54.44
2023-04-01T15:13:30.386Z,57.72
2023-04-01T15:16:23.176Z,56.75
2023-04-01T15:19:15.769Z,55.65
2023-04-01T15:21:53.299Z,56.75
2023-04-01T15:24:48.885Z,58.69
2023-04-01T15:27:33.153Z,57.00
2023-04-01T15:30:17.691Z,57.33
2023-04-01T15:33:05.100Z,59.14
2023-04-01T15:36:02.165Z,55.36
2023-04-01T15:38:36.695Z,54.71
2023-04-01T15:41:37.427Z,55.94
2023-04-01T15:44:36.873Z,54.63
2023-04-01T15:47:30.205Z,54.41
2023-04-01T15:50:18.576Z,55.77
2023-04-01T15:52:59.280Z,54.77
2023-04-01T15:55:38.193Z,53.69
2023-04-01T15:58:31.519Z,53.14
2023-04-01T16:01:17.159Z,54.21
2023-04-01T16:04:17.126Z,56.40
2023-04-01T16:07:09.521Z,56.40
2023-04-01T16:10:06.135Z,56.64
2023-04-01T16:12:53.612Z,55.20
2023-04-01T16:15:51.199Z,55.66
2023-04-01T16:18:53.658Z,55.70
2023-04-01T16:21:39.040Z,56.46
2023-04-01T16:24:21.090Z,53.68
2023-04-01T16:27:15.907Z,54.15
2023-04-01T16:29:53.444Z,54.16
2023-04-01T16:32:45.364Z,54.51
2023-04-01T16:35:25.439Z,54.45
2023-04-01T16:38:03.737Z,53.22
2023-04-01T16:40:50.867Z,53.05
2023-04-01T16:43:43.230Z,52.72
2023-04-01T16:46:45.537Z,54.18
2023-04-01T16:49:14.167Z,54.92
2023-04-01T16:51:51.814Z,54.02
2023-04-01T16:54:51.306Z,52.92
2023-04-01T16:57:26.420Z,51.67
2023-04-01T17:00:13.300Z,53.18
2023-04-01T17:02:54.260Z,53.94
2023-04-01T17:05:55.941Z,52.15
2023-04-01T17:08:39.134Z,53.43
2023-04-01T17:11:17.314Z,54.93
2023-04-01T17:14:14.535Z,54.09
2023-04-01T17:17:01.961Z,55.53
2023-04-01T17:19:42.592Z,55.34
2023-04-01T17:22:33.115Z,58.47
2023-04-01T17:25:07.720Z,57.07
2023-04-01T17:27:52.339Z,53.31
2023-04-01T17:30:34.454Z,51.99
2023-04-01T17:33:03.518Z,53.83
2023-04-01T17:35:44.319Z,53.35
2023-04-01T17:38:46.667Z,52.81
2023-04-01T17:41:43.331Z,52.95
2023-04-01T17:44:22.881Z,53.49
2023-04-01T17:47:06.579Z,54.25
2023-04-01T17:49:42.509Z,53.95
2023-04-01T17:52:38.772Z,54.10
2023-04-01T17:55:32.161Z,56.87
2023-04-01T17:58:22.257Z,56.63
2023-04-01T18:01:09.254Z,54.16
2023-04-01T18:03:58.995Z,55.06
2023-04-01T18:06:49.223Z,53.23
2023-04-01T18:09:55.596Z,52.30
2023-04-01T18:12:39.367Z,52.57
2023-04-01T18:15:27.064Z,53.66
2023-04-01T18:18:08.714Z,55.33
2023-04-01T18:21:10.647Z,55.04
2023-04-01T18:24:07.021Z,54.16
2023-04-01T18:26:40.900Z,53.77
2023-04-01T18:29:23.253Z,52.38
2023-04-01T18:32:42.865Z,53.64
2023-04-01T18:35:34.497Z,52.35
2023-04-01T18:38:12.240Z,54.44
2023-04-01T18:40:51.905Z,52.98
2023-04-01T18:43:59.440Z,51.66
2023-04-01T18:46:46.678Z,55.18
2023-04-01T18:49:24.846Z,53.53
2023-04-01T18:51:58.111Z,54.52
2023-04-01T18:54:42.006Z,53.24
2023-04-01T18:57:15.847Z,55.97
2023-04-01T18:59:52.957Z,55.87
2023-04-01T19:02:39.127Z,57.54
2023-04-01T19:05:36.892Z,56.61
2023-04-01T19:08:18.805Z,53.91
2023-04-01T19:10:59.328Z,52.80
2023-04-01T19:13:46.008Z,52.39
2023-04-01T19:16:44.951Z,52.73
2023-04-01T19:19:41.490Z,51.64
2023-04-01T19:22:31.696Z,51.88
2023-04-01T19:25:12.126Z,51.60
2023-04-01T19:27:49.843Z,53.98
2023-04-01T19:30:45.198Z,53.38
2023-04-01T19:33:33.432Z,54.30
2023-04-01T19:36:01.954Z,54.49
2023-04-01T19:38:43.941Z,54.42
2023-04-01T19:41:40.570Z,53.48
2023-04-01T19:44:24.366Z,53.37
2023-04-01T19:47:02.269Z,52.68
2023-04-01T19:49:30.698Z,52.24
2023-04-01T19:52:27.080Z,51.78
2023-04-01T19:55:01.481Z,51.41
2023-04-01T19:58:14.342Z,50.43
2023-04-01T20:00:45.389Z,51.58
2023-04-01T20:03:22.867Z,53.30
2023-04-01T20:06:13.103Z,53.31
2023-04-01T20:09:07.448Z,55.14
2023-04-01T20:11:48.017Z,53.43
2023-04-01T20:14:30.254Z,51.86
2023-04-01T20:17:07.503Z,51.54
2023-04-01T20:19:42.115Z,50.19
2023-04-01T20:22:36.510Z,50.86
2023-04-01T20:25:17.317Z,50.29
2023-04-01T20:27:54.406Z,51.29
2023-04-01T20:30:44.167Z,51.14
2023-04-01T20:33:46.710Z,53.01
2023-04-01T20:36:34.245Z,56.18
2023-04-01T20:39:22.714Z,53.86
2023-04-01T20:41:57.004Z,52.74
2023-04-01T20:45:19.921Z,52.64
2023-04-01T20:48:00.456Z,51.42
2023-04-01T20:50:47.686Z,53.76
2023-04-01T20:53:33.128Z,52.19
2023-04-01T20:56:11.063Z,52.31
2023-04-01T20:58:54.688Z,51.24
2023-04-01T21:01:35.423Z,50.82
2023-04-01T21:04:27.127Z,50.92
2023-04-01T21:07:37.258Z,51.38
2023-04-01T21:10:27.437Z,51.64
2023-04-01T21:13:04.724Z,51.98
2023-04-01T21:16:01.314Z,52.63
2023-04-01T21:19:02.406Z,52.67
2023-04-01T21:21:58.733Z,51.68
2023-04-01T21:24:54.978Z,53.06
2023-04-01T21:27:47.809Z,51.25
2023-04-01T21:30:25.620Z,51.44
2023-04-01T21:33:01.409Z,51.19
2023-04-01T21:35:37.596Z,51.19
2023-04-01T21:38:12.096Z,52.67
2023-04-01T21:40:49.524Z,52.76
2023-04-01T21:43:41.083Z,51.56
2023-04-01T21:46:48.240Z,52.26
2023-04-01T21:49:34.568Z,51.90
2023-04-01T21:52:36.971Z,53.71
2023-04-01T21:55:27.372Z,51.92
2023-04-01T21:58:17.788Z,52.10
2023-04-01T22:01:00.452Z,51.20
2023-04-01T22:03:53.723Z,51.53
2023-04-01T22:06:49.109Z,53.39
2023-04-01T22:09:39.344Z,53.16
2023-04-01T22:12:19.099Z,51.27
2023-04-01T22:14:59.139Z,52.12
2023-04-01T22:17:30.725Z,51.69
2023-04-01T22:20:20.429Z,52.70
2023-04-01T22:23:07.794Z,51.26
2023-04-01T22:25:45.340Z,51.54
2023-04-01T22:28:21.653Z,51.84
2023-04-01T22:31:01.558Z,51.71
2023-04-01T22:33:49.230Z,51.09
2023-04-01T22:36:41.133Z,51.05
2023-04-01T22:40:00.294Z,54.83
2023-04-01T22:42:50.599Z,53.02
2023-04-01T22:45:38.516Z,54.87
2023-04-01T22:48:33.925Z,53.16
2023-04-01T22:51:14.977Z,53.34
2023-04-01T22:53:52.539Z,52.71
2023-04-01T22:56:36.868Z,51.28
2023-04-01T22:59:16.013Z,51.59
2023-04-01T23:01:52.067Z,51.84
2023-04-01T23:04:26.164Z,51.98
2023-04-01T23:07:01.616Z,52.01
2023-04-01T23:09:34.268Z,51.35
2023-04-01T23:12:13.260Z,51.58
2023-04-01T23:14:48.713Z,50.87
2023-04-01T23:17:22.989Z,50.78
2023-04-01T23:20:16.279Z,53.84
2023-04-01T23:23:02.794Z,51.21
2023-04-01T23:25:44.417Z,50.74
2023-04-01T23:28:15.773Z,51.58
2023-04-01T23:30:44.953Z,51.52
2023-04-01T23:33:23.936Z,52.23
2023-04-01T23:36:06.653Z,52.69
2023-04-01T23:38:38.897Z,52.13
2023-04-01T23:41:07.622Z,50.98
2023-04-01T23:43:43.666Z,51.68
2023-04-01T23:46:13.921Z,50.61
2023-04-01T23:48:47.021Z,50.51
2023-04-01T23:51:22.807Z,50.46
2023-04-01T23:54:04.666Z,50.58
2023-04-01T23:56:36.455Z,51.17
2023-04-01T23:59:05.015Z,51.26
